createdAt,value
2022-08-05T00:00:35.113Z,1004.62
2022-08-05T00:01:36.534Z,1004.58
2022-08-05T00:02:35.445Z,1004.61
2022-08-05T00:03:34.549Z,1004.64
2022-08-05T00:04:34.797Z,1004.65
2022-08-05T00:06:04.801Z,1004.65
2022-08-05T00:06:36.317Z,1004.62
2022-08-05T00:07:59.887Z,1004.65
2022-08-05T00:08:36.592Z,1004.59
2022-08-05T00:09:35.772Z,1004.55
2022-08-05T00:10:35.975Z,1004.58
2022-08-05T00:11:48.534Z,1004.54
2022-08-05T00:12:56.233Z,1004.58
2022-08-05T00:13:39.478Z,1004.57
2022-08-05T00:14:36.723Z,1004.54
2022-08-05T00:15:55.374Z,1004.54
2022-08-05T00:16:52.398Z,1004.50
2022-08-05T00:17:38.230Z,1004.50
2022-08-05T00:18:37.901Z,1004.52
2022-08-05T00:19:45.709Z,1004.49
2022-08-05T00:20:38.714Z,1004.50
2022-08-05T00:21:37.984Z,1004.47
2022-08-05T00:22:38.181Z,1004.49
2022-08-05T00:23:46.060Z,1004.48
2022-08-05T00:24:42.639Z,1004.48
2022-08-05T00:25:45.862Z,1004.47
2022-08-05T00:26:46.722Z,1004.45
2022-08-05T00:27:42.789Z,1004.47
2022-08-05T00:28:39.222Z,1004.52
2022-08-05T00:29:39.433Z,1004.50
2022-08-05T00:30:39.634Z,1004.50
2022-08-05T00:31:53.190Z,1004.51
2022-08-05T00:32:41.022Z,1004.54
2022-08-05T00:34:56.799Z,1004.49
2022-08-05T00:34:57.050Z,1004.50
2022-08-05T00:35:47.843Z,1004.49
2022-08-05T00:37:13.061Z,1004.48
2022-08-05T00:37:52.877Z,1004.47
2022-08-05T00:38:42.203Z,1004.49
2022-08-05T00:39:57.092Z,1004.53
2022-08-05T00:40:46.589Z,1004.53
2022-08-05T00:41:55.445Z,1004.56
2022-08-05T00:42:42.975Z,1004.54
2022-08-05T00:43:47.133Z,1004.56
2022-08-05T00:44:43.290Z,1004.57
2022-08-05T00:45:43.646Z,1004.58
2022-08-05T00:46:43.739Z,1004.60
2022-08-05T00:47:56.494Z,1004.58
2022-08-05T00:48:50.761Z,1004.66
2022-08-05T00:49:51.020Z,1004.69
2022-08-05T00:50:46.126Z,1004.68
2022-08-05T00:51:50.978Z,1004.72
2022-08-05T00:52:45.543Z,1004.72
2022-08-05T00:54:01.218Z,1004.73
2022-08-05T00:54:45.164Z,1004.79
2022-08-05T00:55:44.370Z,1004.91
2022-08-05T00:56:51.278Z,1004.97
2022-08-05T00:57:57.868Z,1004.92
2022-08-05T00:58:45.859Z,1004.80
2022-08-05T00:59:45.093Z,1004.71
2022-08-05T01:00:45.387Z,1004.71
2022-08-05T01:01:48.695Z,1004.79
2022-08-05T01:02:45.704Z,1004.85
2022-08-05T01:03:45.915Z,1004.88
2022-08-05T01:04:46.124Z,1004.87
2022-08-05T01:05:46.284Z,1004.86
2022-08-05T01:06:47.897Z,1004.87
2022-08-05T01:08:30.393Z,1004.82
2022-08-05T01:08:47.899Z,1004.79
2022-08-05T01:09:47.110Z,1004.76
2022-08-05T01:10:52.229Z,1004.78
2022-08-05T01:11:47.443Z,1004.79
2022-08-05T01:13:05.242Z,1004.79
2022-08-05T01:13:58.316Z,1004.83
2022-08-05T01:14:48.886Z,1004.89
2022-08-05T01:15:48.149Z,1004.90
2022-08-05T01:16:48.256Z,1004.95
2022-08-05T01:17:53.727Z,1004.99
2022-08-05T01:18:50.932Z,1004.98
2022-08-05T01:20:00.755Z,1004.93
2022-08-05T01:20:50.039Z,1004.91
2022-08-05T01:21:50.785Z,1004.89
2022-08-05T01:22:49.739Z,1004.88
2022-08-05T01:23:53.011Z,1004.90
2022-08-05T01:24:49.861Z,1004.82
2022-08-05T01:25:53.279Z,1004.79
2022-08-05T01:26:50.234Z,1004.82
2022-08-05T01:27:55.125Z,1004.88
2022-08-05T01:28:51.654Z,1004.90
2022-08-05T01:29:51.810Z,1004.89
2022-08-05T01:30:53.710Z,1004.94
2022-08-05T01:31:51.297Z,1004.97
2022-08-05T01:32:51.489Z,1005.00
2022-08-05T01:33:53.545Z,1005.00
2022-08-05T01:34:51.883Z,1004.93
2022-08-05T01:35:53.427Z,1004.92
2022-08-05T01:36:52.253Z,1004.89
2022-08-05T01:37:52.466Z,1004.93
2022-08-05T01:38:52.679Z,1004.95
2022-08-05T01:39:52.811Z,1004.99
2022-08-05T01:40:53.051Z,1005.07
2022-08-05T01:41:53.239Z,1005.03
2022-08-05T01:42:53.422Z,1004.97
2022-08-05T01:43:53.617Z,1004.91
2022-08-05T01:44:54.569Z,1004.88
2022-08-05T01:45:55.273Z,1004.90
2022-08-05T01:46:54.211Z,1005.00
2022-08-05T01:47:55.522Z,1005.05
2022-08-05T01:48:54.614Z,1005.06
2022-08-05T01:50:01.704Z,1005.04
2022-08-05T01:50:55.976Z,1004.99
2022-08-05T01:51:55.186Z,1004.88
2022-08-05T01:52:55.384Z,1004.81
2022-08-05T01:53:58.736Z,1004.76
2022-08-05T01:54:55.781Z,1004.88
2022-08-05T01:55:55.984Z,1004.88
2022-08-05T01:58:11.073Z,1004.88
2022-08-05T01:58:11.257Z,1004.96
2022-08-05T01:58:57.514Z,1004.87
2022-08-05T01:59:56.722Z,1004.87
2022-08-05T02:00:56.952Z,1004.85
2022-08-05T02:01:57.758Z,1004.80
2022-08-05T02:02:57.375Z,1004.79
2022-08-05T02:03:57.638Z,1004.75
2022-08-05T02:04:57.834Z,1004.80
2022-08-05T02:06:00.871Z,1004.83
2022-08-05T02:06:58.220Z,1004.80
2022-08-05T02:08:01.305Z,1004.81
2022-08-05T02:08:59.349Z,1004.81
2022-08-05T02:09:58.922Z,1004.83
2022-08-05T02:10:59.165Z,1004.80
2022-08-05T02:11:59.376Z,1004.78
2022-08-05T02:12:59.588Z,1004.76
2022-08-05T02:13:59.807Z,1004.77
2022-08-05T02:15:00.011Z,1004.75
2022-08-05T02:16:00.238Z,1004.76
2022-08-05T02:17:00.443Z,1004.76
2022-08-05T02:18:28.451Z,1004.73
2022-08-05T02:19:01.803Z,1004.72
2022-08-05T02:20:01.954Z,1004.69
2022-08-05T02:21:01.165Z,1004.77
2022-08-05T02:22:01.377Z,1004.79
2022-08-05T02:23:01.619Z,1004.78
2022-08-05T02:24:01.797Z,1004.81
2022-08-05T02:25:02.034Z,1004.81
2022-08-05T02:26:02.168Z,1004.83
2022-08-05T02:27:10.280Z,1004.82
2022-08-05T02:28:08.864Z,1004.84
2022-08-05T02:29:04.019Z,1004.83
2022-08-05T02:30:03.062Z,1004.84
2022-08-05T02:31:04.130Z,1004.86
2022-08-05T02:32:04.695Z,1004.86
2022-08-05T02:33:03.726Z,1004.83
2022-08-05T02:34:03.928Z,1004.85
2022-08-05T02:35:09.602Z,1004.86
2022-08-05T02:36:05.412Z,1004.86
2022-08-05T02:37:04.622Z,1004.85
2022-08-05T02:38:04.840Z,1004.87
2022-08-05T02:39:05.078Z,1004.86
2022-08-05T02:40:05.222Z,1004.89
2022-08-05T02:41:14.448Z,1004.90
2022-08-05T02:42:06.643Z,1004.92
2022-08-05T02:43:07.154Z,1004.91
2022-08-05T02:44:13.021Z,1004.86
2022-08-05T02:45:07.172Z,1004.85
2022-08-05T02:46:06.383Z,1004.83
2022-08-05T02:47:06.606Z,1004.87
2022-08-05T02:48:12.328Z,1004.86
2022-08-05T02:49:11.078Z,1004.83
2022-08-05T02:50:07.270Z,1004.85
2022-08-05T02:51:07.372Z,1004.89
2022-08-05T02:52:07.804Z,1004.87
2022-08-05T02:53:11.776Z,1004.82
2022-08-05T02:54:08.972Z,1004.86
2022-08-05T02:55:10.951Z,1004.81
2022-08-05T02:56:08.381Z,1004.84
2022-08-05T02:57:10.247Z,1004.82
2022-08-05T02:58:13.235Z,1004.80
2022-08-05T02:59:09.068Z,1004.78
2022-08-05T03:00:09.273Z,1004.80
2022-08-05T03:01:09.605Z,1004.79
2022-08-05T03:02:09.761Z,1004.77
2022-08-05T03:03:10.527Z,1004.79
2022-08-05T03:04:14.052Z,1004.75
2022-08-05T03:05:10.467Z,1004.72
2022-08-05T03:06:56.649Z,1004.75
2022-08-05T03:07:17.603Z,1004.70
2022-08-05T03:08:12.414Z,1004.68
2022-08-05T03:09:11.298Z,1004.61
2022-08-05T03:10:13.400Z,1004.60
2022-08-05T03:11:57.028Z,1004.59
2022-08-05T03:12:12.922Z,1004.66
2022-08-05T03:13:16.705Z,1004.67
2022-08-05T03:14:13.394Z,1004.63
2022-08-05T03:15:12.644Z,1004.61
2022-08-05T03:16:12.842Z,1004.57
2022-08-05T03:17:13.083Z,1004.55
2022-08-05T03:18:13.295Z,1004.55
2022-08-05T03:19:20.375Z,1004.54
2022-08-05T03:20:14.695Z,1004.51
2022-08-05T03:21:13.953Z,1004.45
2022-08-05T03:22:16.752Z,1004.49
2022-08-05T03:23:14.469Z,1004.50
2022-08-05T03:24:14.721Z,1004.54
2022-08-05T03:25:32.657Z,1004.51
2022-08-05T03:26:31.700Z,1004.54
2022-08-05T03:27:16.290Z,1004.55
2022-08-05T03:28:18.831Z,1004.55
2022-08-05T03:29:17.275Z,1004.53
2022-08-05T03:30:33.319Z,1004.52
2022-08-05T03:31:25.851Z,1004.51
2022-08-05T03:32:17.235Z,1004.53
2022-08-05T03:33:16.507Z,1004.52
2022-08-05T03:34:16.718Z,1004.54
2022-08-05T03:35:16.945Z,1004.57
2022-08-05T03:36:17.105Z,1004.57
2022-08-05T03:37:18.301Z,1004.58
2022-08-05T03:38:17.484Z,1004.59
2022-08-05T03:39:20.341Z,1004.61
2022-08-05T03:40:24.375Z,1004.60
2022-08-05T03:41:19.306Z,1004.61
2022-08-05T03:42:18.506Z,1004.59
2022-08-05T03:44:09.597Z,1004.56
2022-08-05T03:44:20.222Z,1004.64
2022-08-05T03:45:22.561Z,1004.63
2022-08-05T03:46:19.277Z,1004.67
2022-08-05T03:47:19.522Z,1004.69
2022-08-05T03:48:21.894Z,1004.72
2022-08-05T03:49:19.932Z,1004.69
2022-08-05T03:50:20.107Z,1004.71
2022-08-05T03:52:36.872Z,1004.68
2022-08-05T03:52:38.087Z,1004.67
2022-08-05T03:55:53.611Z,1004.71
2022-08-05T03:55:53.956Z,1004.73
2022-08-05T03:56:05.518Z,1004.74
2022-08-05T03:56:33.145Z,1004.73
2022-08-05T03:57:22.572Z,1004.77
2022-08-05T03:58:22.730Z,1004.72
2022-08-05T03:59:23.009Z,1004.75
2022-08-05T04:00:22.193Z,1004.76
2022-08-05T04:01:22.424Z,1004.76
2022-08-05T04:02:38.615Z,1004.81
2022-08-05T04:03:28.488Z,1004.80
2022-08-05T04:04:26.528Z,1004.80
2022-08-05T04:05:23.225Z,1004.79
2022-08-05T04:06:23.286Z,1004.82
2022-08-05T04:07:24.923Z,1004.81
2022-08-05T04:08:35.184Z,1004.78
2022-08-05T04:09:26.347Z,1004.74
2022-08-05T04:10:24.107Z,1004.74
2022-08-05T04:11:24.384Z,1004.71
2022-08-05T04:12:25.545Z,1004.72
2022-08-05T04:13:24.769Z,1004.70
2022-08-05T04:14:30.421Z,1004.69
2022-08-05T04:15:26.113Z,1004.73
2022-08-05T04:16:32.488Z,1004.73
2022-08-05T04:17:26.670Z,1004.69
2022-08-05T04:18:26.915Z,1004.72
2022-08-05T04:19:26.124Z,1004.71
2022-08-05T04:20:26.318Z,1004.71
2022-08-05T04:22:08.748Z,1004.69
2022-08-05T04:22:27.706Z,1004.72
2022-08-05T04:24:06.045Z,1004.70
2022-08-05T04:24:28.095Z,1004.71
2022-08-05T04:25:56.737Z,1004.66
2022-08-05T04:26:32.522Z,1004.68
2022-08-05T04:27:28.178Z,1004.71
2022-08-05T04:28:30.779Z,1004.71
2022-08-05T04:29:28.095Z,1004.76
2022-08-05T04:30:28.273Z,1004.77
2022-08-05T04:31:34.790Z,1004.76
2022-08-05T04:32:31.213Z,1004.80
2022-08-05T04:33:54.561Z,1004.79
2022-08-05T04:34:32.576Z,1004.83
2022-08-05T04:36:11.255Z,1004.81
2022-08-05T04:36:49.808Z,1004.87
2022-08-05T04:38:01.125Z,1004.90
2022-08-05T04:38:39.498Z,1004.89
2022-08-05T04:39:31.316Z,1004.89
2022-08-05T04:40:30.281Z,1004.89
2022-08-05T04:41:37.089Z,1004.93
2022-08-05T04:42:31.656Z,1004.92
2022-08-05T04:43:30.860Z,1004.88
2022-08-05T04:44:31.089Z,1004.93
2022-08-05T04:45:48.482Z,1004.94
2022-08-05T04:46:32.455Z,1004.99
2022-08-05T04:47:38.448Z,1004.98
2022-08-05T04:48:32.826Z,1004.97
2022-08-05T04:50:02.188Z,1004.93
2022-08-05T04:50:37.193Z,1004.94
2022-08-05T04:51:32.406Z,1004.92
2022-08-05T04:52:34.105Z,1004.87
2022-08-05T04:53:33.675Z,1004.79
2022-08-05T04:54:32.976Z,1004.81
2022-08-05T04:55:39.821Z,1004.79
2022-08-05T04:56:37.002Z,1004.78
2022-08-05T04:57:37.163Z,1004.82
2022-08-05T04:58:33.787Z,1004.80
2022-08-05T04:59:38.861Z,1004.83
2022-08-05T05:00:35.145Z,1004.84
2022-08-05T05:02:06.057Z,1004.88
2022-08-05T05:02:41.853Z,1004.85
2022-08-05T05:03:41.828Z,1004.84
2022-08-05T05:04:35.787Z,1004.92
2022-08-05T05:05:34.952Z,1004.93
2022-08-05T05:06:40.929Z,1004.93
2022-08-05T05:07:36.714Z,1004.91
2022-08-05T05:08:36.430Z,1004.95
2022-08-05T05:09:37.494Z,1004.97
2022-08-05T05:10:35.847Z,1004.97
2022-08-05T05:11:41.578Z,1004.98
2022-08-05T05:12:37.222Z,1004.99
2022-08-05T05:13:43.527Z,1005.00
2022-08-05T05:14:37.583Z,1004.98
2022-08-05T05:15:57.396Z,1005.03
2022-08-05T05:16:37.934Z,1004.99
2022-08-05T05:17:55.521Z,1005.04
2022-08-05T05:18:38.336Z,1005.05
2022-08-05T05:19:47.535Z,1005.07
2022-08-05T05:20:38.695Z,1005.10
2022-08-05T05:21:37.883Z,1005.09
2022-08-05T05:22:40.870Z,1005.13
2022-08-05T05:24:03.975Z,1005.14
2022-08-05T05:24:57.758Z,1005.15
2022-08-05T05:25:41.055Z,1005.20
2022-08-05T05:26:39.713Z,1005.26
2022-08-05T05:27:45.168Z,1005.31
2022-08-05T05:28:42.899Z,1005.37
2022-08-05T05:30:03.347Z,1005.47
2022-08-05T05:30:40.496Z,1005.51
2022-08-05T05:32:12.833Z,1005.62
2022-08-05T05:33:17.143Z,1005.71
2022-08-05T05:34:14.133Z,1005.73
2022-08-05T05:35:13.255Z,1005.76
2022-08-05T05:36:14.648Z,1005.75
2022-08-05T05:37:13.531Z,1005.74
2022-08-05T05:38:14.304Z,1005.69
2022-08-05T05:39:13.930Z,1005.65
2022-08-05T05:40:14.087Z,1005.62
2022-08-05T05:41:14.191Z,1005.58
2022-08-05T05:42:14.341Z,1005.60
2022-08-05T05:43:14.530Z,1005.57
2022-08-05T05:44:36.870Z,1005.57
2022-08-05T05:45:15.771Z,1005.57
2022-08-05T05:46:17.685Z,1005.58
2022-08-05T05:47:21.619Z,1005.62
2022-08-05T05:48:16.321Z,1005.62
2022-08-05T05:49:22.988Z,1005.65
2022-08-05T05:50:16.481Z,1005.63
2022-08-05T05:51:16.165Z,1005.66
2022-08-05T05:52:26.484Z,1005.65
2022-08-05T05:53:21.350Z,1005.69
2022-08-05T05:54:17.100Z,1005.68
2022-08-05T05:55:16.241Z,1005.76
2022-08-05T05:56:16.410Z,1005.85
2022-08-05T05:57:19.237Z,1005.92
2022-08-05T05:58:16.649Z,1006.08
2022-08-05T05:59:16.827Z,1006.19
2022-08-05T06:00:16.989Z,1006.22
2022-08-05T06:01:17.151Z,1006.25
2022-08-05T06:02:32.337Z,1006.31
2022-08-05T06:03:40.868Z,1006.28
2022-08-05T06:04:18.615Z,1006.23
2022-08-05T06:05:17.661Z,1006.18
2022-08-05T06:06:17.743Z,1006.13
2022-08-05T06:07:17.941Z,1006.08
2022-08-05T06:08:31.518Z,1006.09
2022-08-05T06:09:27.452Z,1006.11
2022-08-05T06:10:19.376Z,1006.19
2022-08-05T06:11:18.536Z,1006.21
2022-08-05T06:12:18.736Z,1006.25
2022-08-05T06:13:18.867Z,1006.31
2022-08-05T06:14:19.042Z,1006.38
2022-08-05T06:15:23.976Z,1006.37
2022-08-05T06:16:28.926Z,1006.49
2022-08-05T06:17:32.039Z,1006.48
2022-08-05T06:18:20.665Z,1006.47
2022-08-05T06:19:33.915Z,1006.46
2022-08-05T06:20:21.706Z,1006.53
2022-08-05T06:21:19.999Z,1006.53
2022-08-05T06:22:20.167Z,1006.58
2022-08-05T06:23:20.291Z,1006.58
2022-08-05T06:24:25.619Z,1006.55
2022-08-05T06:25:25.119Z,1006.52
2022-08-05T06:26:25.008Z,1006.57
2022-08-05T06:28:10.447Z,1006.50
2022-08-05T06:28:22.175Z,1006.48
2022-08-05T06:29:25.126Z,1006.43
2022-08-05T06:30:22.312Z,1006.35
2022-08-05T06:31:22.291Z,1006.40
2022-08-05T06:32:28.712Z,1006.39
2022-08-05T06:33:33.137Z,1006.31
2022-08-05T06:34:22.809Z,1006.31
2022-08-05T06:36:07.469Z,1006.26
2022-08-05T06:36:26.041Z,1006.33
2022-08-05T06:37:58.038Z,1006.34
2022-08-05T06:38:35.942Z,1006.34
2022-08-05T06:39:26.880Z,1006.40
2022-08-05T06:40:27.955Z,1006.36
2022-08-05T06:41:23.936Z,1006.38
2022-08-05T06:42:23.122Z,1006.35
2022-08-05T06:43:58.328Z,1006.27
2022-08-05T06:44:24.348Z,1006.33
2022-08-05T06:45:44.925Z,1006.26
2022-08-05T06:46:30.430Z,1006.29
2022-08-05T06:48:12.496Z,1006.31
2022-08-05T06:48:50.122Z,1006.29
2022-08-05T06:50:01.759Z,1006.27
2022-08-05T06:50:25.063Z,1006.32
2022-08-05T06:51:30.077Z,1006.29
2022-08-05T06:52:37.427Z,1006.33
2022-08-05T06:53:27.883Z,1006.33
2022-08-05T06:54:25.941Z,1006.34
2022-08-05T06:55:24.822Z,1006.25
2022-08-05T06:56:26.292Z,1006.19
2022-08-05T06:57:57.981Z,1006.33
2022-08-05T06:58:34.733Z,1006.21
2022-08-05T06:59:26.400Z,1006.29
2022-08-05T07:00:25.665Z,1006.18
2022-08-05T07:01:27.671Z,1006.19
2022-08-05T07:02:26.782Z,1006.21
2022-08-05T07:03:32.767Z,1006.27
2022-08-05T07:04:27.038Z,1006.27
2022-08-05T07:05:37.741Z,1006.34
2022-08-05T07:06:28.432Z,1006.35
2022-08-05T07:07:35.482Z,1006.41
2022-08-05T07:08:27.619Z,1006.40
2022-08-05T07:09:26.778Z,1006.36
2022-08-05T07:10:32.209Z,1006.42
2022-08-05T07:11:27.974Z,1006.45
2022-08-05T07:12:27.120Z,1006.46
2022-08-05T07:13:56.622Z,1006.52
2022-08-05T07:14:29.631Z,1006.50
2022-08-05T07:15:34.538Z,1006.57
2022-08-05T07:17:56.611Z,1006.61
2022-08-05T07:18:02.047Z,1006.69
2022-08-05T07:18:30.067Z,1006.77
2022-08-05T07:20:10.579Z,1006.75
2022-08-05T07:20:33.802Z,1006.84
2022-08-05T07:21:29.054Z,1006.94
2022-08-05T07:22:30.020Z,1006.95
2022-08-05T07:23:29.729Z,1006.83
2022-08-05T07:24:28.741Z,1006.91
2022-08-05T07:25:55.707Z,1006.92
2022-08-05T07:26:29.739Z,1006.89
2022-08-05T07:28:00.670Z,1006.88
2022-08-05T07:28:29.981Z,1006.84
2022-08-05T07:30:22.082Z,1006.79
2022-08-05T07:30:32.447Z,1006.82
2022-08-05T07:31:40.746Z,1006.79
2022-08-05T07:32:30.498Z,1006.77
2022-08-05T07:33:36.802Z,1006.74
2022-08-05T07:34:30.785Z,1006.82
2022-08-05T07:36:03.728Z,1006.78
2022-08-05T07:36:31.020Z,1006.76
2022-08-05T07:37:37.625Z,1006.71
2022-08-05T07:38:33.803Z,1006.65
2022-08-05T07:40:04.339Z,1006.61
2022-08-05T07:40:33.253Z,1006.59
2022-08-05T07:42:07.652Z,1006.61
2022-08-05T07:42:33.975Z,1006.57
2022-08-05T07:43:30.861Z,1006.61
2022-08-05T07:44:31.022Z,1006.63
2022-08-05T07:45:56.437Z,1006.70
2022-08-05T07:46:32.329Z,1006.70
2022-08-05T07:47:42.402Z,1006.74
2022-08-05T07:49:02.810Z,1006.76
2022-08-05T07:49:32.744Z,1006.85
2022-08-05T07:50:33.623Z,1006.83
2022-08-05T07:51:37.215Z,1006.80
2022-08-05T07:52:33.097Z,1006.77
2022-08-05T07:53:37.002Z,1006.74
2022-08-05T07:54:41.271Z,1006.64
2022-08-05T07:55:57.196Z,1006.59
2022-08-05T07:57:00.286Z,1006.58
2022-08-05T07:57:52.300Z,1006.57
2022-08-05T07:58:58.644Z,1006.56
2022-08-05T07:59:40.198Z,1006.55
2022-08-05T08:00:34.174Z,1006.58
2022-08-05T08:01:33.366Z,1006.53
2022-08-05T08:03:14.744Z,1006.55
2022-08-05T08:03:44.446Z,1006.59
2022-08-05T08:04:38.076Z,1006.58
2022-08-05T08:05:33.913Z,1006.62
2022-08-05T08:06:35.017Z,1006.59
2022-08-05T08:07:39.668Z,1006.63
2022-08-05T08:08:35.319Z,1006.59
2022-08-05T08:09:34.497Z,1006.59
2022-08-05T08:10:34.667Z,1006.55
2022-08-05T08:11:48.296Z,1006.49
2022-08-05T08:12:49.248Z,1006.50
2022-08-05T08:13:49.255Z,1006.51
2022-08-05T08:14:36.117Z,1006.54
2022-08-05T08:16:33.967Z,1006.53
2022-08-05T08:16:50.092Z,1006.50
2022-08-05T08:17:36.546Z,1006.40
2022-08-05T08:18:35.674Z,1006.42
2022-08-05T08:20:21.308Z,1006.32
2022-08-05T08:21:00.009Z,1006.34
2022-08-05T08:21:37.126Z,1006.33
2022-08-05T08:22:36.262Z,1006.31
2022-08-05T08:24:03.100Z,1006.31
2022-08-05T08:24:51.753Z,1006.28
2022-08-05T08:26:02.817Z,1006.26
2022-08-05T08:26:37.796Z,1006.19
2022-08-05T08:27:44.981Z,1006.17
2022-08-05T08:28:59.213Z,1006.19
2022-08-05T08:30:03.833Z,1006.20
2022-08-05T08:30:47.705Z,1006.30
2022-08-05T08:31:38.341Z,1006.42
2022-08-05T08:32:41.702Z,1006.48
2022-08-05T08:33:38.554Z,1006.60
2022-08-05T08:34:37.846Z,1006.73
2022-08-05T08:35:41.256Z,1006.84
2022-08-05T08:36:52.485Z,1006.90
2022-08-05T08:37:39.305Z,1006.90
2022-08-05T08:38:39.416Z,1006.93
2022-08-05T08:39:38.583Z,1006.84
2022-08-05T08:40:39.716Z,1006.80
2022-08-05T08:41:51.783Z,1006.75
2022-08-05T08:42:50.368Z,1006.72
2022-08-05T08:45:18.094Z,1006.84
2022-08-05T08:45:23.752Z,1006.73
2022-08-05T08:45:40.389Z,1006.85
2022-08-05T08:46:39.548Z,1006.90
2022-08-05T08:48:05.947Z,1006.95
2022-08-05T08:48:59.678Z,1006.94
2022-08-05T08:50:14.573Z,1006.98
2022-08-05T08:51:21.987Z,1007.04
2022-08-05T08:52:04.128Z,1007.03
2022-08-05T08:52:41.385Z,1007.01
2022-08-05T08:53:45.091Z,1006.98
2022-08-05T08:54:42.266Z,1006.96
2022-08-05T08:56:03.202Z,1006.94
2022-08-05T08:56:47.899Z,1007.05
2022-08-05T08:57:48.403Z,1007.08
2022-08-05T08:58:44.649Z,1007.15
2022-08-05T08:59:47.053Z,1007.23
2022-08-05T09:00:42.672Z,1007.27
2022-08-05T09:01:42.725Z,1007.31
2022-08-05T09:02:41.898Z,1007.37
2022-08-05T09:03:45.353Z,1007.37
2022-08-05T09:04:58.435Z,1007.36
2022-08-05T09:06:09.234Z,1007.35
2022-08-05T09:06:43.507Z,1007.33
2022-08-05T09:07:57.459Z,1007.34
2022-08-05T09:08:43.736Z,1007.35
2022-08-05T09:09:42.866Z,1007.32
2022-08-05T09:10:43.009Z,1007.32
2022-08-05T09:11:50.854Z,1007.31
2022-08-05T09:12:44.287Z,1007.31
2022-08-05T09:14:01.233Z,1007.30
2022-08-05T09:14:58.480Z,1007.36
2022-08-05T09:15:44.666Z,1007.35
2022-08-05T09:16:48.598Z,1007.37
2022-08-05T09:17:49.583Z,1007.31
2022-08-05T09:18:45.060Z,1007.33
2022-08-05T09:20:01.541Z,1007.28
2022-08-05T09:20:45.352Z,1007.34
2022-08-05T09:22:18.489Z,1007.38
2022-08-05T09:22:51.695Z,1007.42
2022-08-05T09:23:45.888Z,1007.46
2022-08-05T09:24:45.058Z,1007.42
2022-08-05T09:26:01.795Z,1007.39
2022-08-05T09:26:46.335Z,1007.38
2022-08-05T09:28:04.744Z,1007.41
2022-08-05T09:28:46.566Z,1007.40
2022-08-05T09:29:48.043Z,1007.34
2022-08-05T09:30:52.884Z,1007.38
2022-08-05T09:32:41.003Z,1007.34
2022-08-05T09:32:48.806Z,1007.35
2022-08-05T09:33:46.239Z,1007.45
2022-08-05T09:34:46.335Z,1007.48
2022-08-05T09:35:46.510Z,1007.48
2022-08-05T09:36:55.615Z,1007.45
2022-08-05T09:38:16.366Z,1007.43
2022-08-05T09:38:47.871Z,1007.42
2022-08-05T09:39:52.342Z,1007.43
2022-08-05T09:40:52.721Z,1007.39
2022-08-05T09:41:56.126Z,1007.46
2022-08-05T09:42:48.481Z,1007.45
2022-08-05T09:43:49.439Z,1007.43
2022-08-05T09:44:50.415Z,1007.40
2022-08-05T09:46:06.225Z,1007.40
2022-08-05T09:46:53.495Z,1007.39
2022-08-05T09:47:56.576Z,1007.32
2022-08-05T09:48:55.430Z,1007.26
2022-08-05T09:50:00.823Z,1007.13
2022-08-05T09:50:49.229Z,1007.01
2022-08-05T09:51:49.583Z,1007.03
2022-08-05T09:52:52.788Z,1007.02
2022-08-05T09:53:54.733Z,1007.05
2022-08-05T09:54:49.801Z,1007.00
2022-08-05T09:55:56.774Z,1006.95
2022-08-05T09:56:52.373Z,1006.85
2022-08-05T09:57:49.272Z,1006.81
2022-08-05T09:58:50.407Z,1006.83
2022-08-05T09:59:49.585Z,1006.83
2022-08-05T10:00:49.671Z,1006.84
2022-08-05T10:01:57.841Z,1006.79
2022-08-05T10:02:50.990Z,1006.72
2022-08-05T10:03:58.793Z,1006.65
2022-08-05T10:04:51.270Z,1006.53
2022-08-05T10:05:50.427Z,1006.40
2022-08-05T10:06:58.720Z,1006.32
2022-08-05T10:08:35.113Z,1006.39
2022-08-05T10:08:53.911Z,1006.44
2022-08-05T10:10:13.806Z,1006.50
2022-08-05T10:10:54.099Z,1006.61
2022-08-05T10:11:51.305Z,1006.64
2022-08-05T10:12:51.478Z,1006.73
2022-08-05T10:13:54.617Z,1006.74
2022-08-05T10:14:54.391Z,1006.73
2022-08-05T10:15:51.991Z,1006.75
2022-08-05T10:16:52.988Z,1006.79
2022-08-05T10:17:56.866Z,1006.85
2022-08-05T10:18:53.470Z,1006.94
2022-08-05T10:20:04.181Z,1007.01
2022-08-05T10:20:53.750Z,1006.97
2022-08-05T10:21:52.915Z,1006.94
2022-08-05T10:22:53.091Z,1006.89
2022-08-05T10:23:59.987Z,1006.81
2022-08-05T10:24:54.360Z,1006.87
2022-08-05T10:25:53.521Z,1006.96
2022-08-05T10:26:53.736Z,1007.11
2022-08-05T10:28:16.789Z,1007.14
2022-08-05T10:28:56.545Z,1007.18
2022-08-05T10:30:06.403Z,1007.20
2022-08-05T10:32:53.603Z,1007.31
2022-08-05T10:32:54.721Z,1007.31
2022-08-05T10:33:01.214Z,1007.35
2022-08-05T10:33:55.579Z,1007.44
2022-08-05T10:34:54.753Z,1007.46
2022-08-05T10:35:59.891Z,1007.50
2022-08-05T10:36:56.008Z,1007.54
2022-08-05T10:37:55.177Z,1007.59
2022-08-05T10:38:55.418Z,1007.64
2022-08-05T10:40:03.911Z,1007.63
2022-08-05T10:40:58.215Z,1007.61
2022-08-05T10:42:00.565Z,1007.52
2022-08-05T10:42:57.006Z,1007.43
2022-08-05T10:43:56.191Z,1007.38
2022-08-05T10:44:56.352Z,1007.32
2022-08-05T10:45:56.547Z,1007.26
2022-08-05T10:46:57.679Z,1007.23
2022-08-05T10:48:31.550Z,1007.21
2022-08-05T10:49:01.522Z,1007.18
2022-08-05T10:50:20.668Z,1007.18
2022-08-05T10:50:58.304Z,1007.24
2022-08-05T10:52:00.527Z,1007.24
2022-08-05T10:52:58.955Z,1007.27
2022-08-05T10:53:58.518Z,1007.31
2022-08-05T10:54:58.021Z,1007.32
2022-08-05T10:56:05.254Z,1007.36
2022-08-05T10:56:59.326Z,1007.36
2022-08-05T10:57:58.494Z,1007.33
2022-08-05T10:58:58.698Z,1007.30
2022-08-05T11:00:02.606Z,1007.28
2022-08-05T11:01:02.687Z,1007.26
2022-08-05T11:02:04.577Z,1007.24
2022-08-05T11:03:24.233Z,1007.20
2022-08-05T11:04:00.326Z,1007.12
2022-08-05T11:04:59.471Z,1007.09
2022-08-05T11:05:59.623Z,1007.07
2022-08-05T11:06:59.753Z,1007.01
2022-08-05T11:08:02.378Z,1007.01
2022-08-05T11:09:01.077Z,1007.02
2022-08-05T11:10:04.069Z,1007.03
2022-08-05T11:11:07.739Z,1007.03
2022-08-05T11:12:01.407Z,1007.02
2022-08-05T11:13:01.351Z,1007.08
2022-08-05T11:14:00.653Z,1007.08
2022-08-05T11:15:01.424Z,1007.21
2022-08-05T11:16:01.930Z,1007.11
2022-08-05T11:17:14.090Z,1007.26
2022-08-05T11:18:03.929Z,1007.41
2022-08-05T11:19:01.384Z,1007.45
2022-08-05T11:20:17.375Z,1007.46
2022-08-05T11:21:02.540Z,1007.47
2022-08-05T11:22:01.667Z,1007.38
2022-08-05T11:23:05.899Z,1007.39
2022-08-05T11:24:14.757Z,1007.48
2022-08-05T11:26:02.960Z,1007.43
2022-08-05T11:26:08.469Z,1007.35
2022-08-05T11:27:03.087Z,1007.54
2022-08-05T11:28:02.131Z,1007.53
2022-08-05T11:29:06.937Z,1007.56
2022-08-05T11:30:03.258Z,1007.61
2022-08-05T11:31:02.339Z,1007.57
2022-08-05T11:32:02.396Z,1007.60
2022-08-05T11:33:02.484Z,1007.57
2022-08-05T11:34:02.522Z,1007.43
2022-08-05T11:35:02.649Z,1007.52
2022-08-05T11:36:08.133Z,1007.45
2022-08-05T11:37:55.151Z,1007.41
2022-08-05T11:38:29.157Z,1007.40
2022-08-05T11:39:03.907Z,1007.43
2022-08-05T11:40:04.620Z,1007.35
2022-08-05T11:41:35.061Z,1007.40
2022-08-05T11:42:04.661Z,1007.44
2022-08-05T11:43:03.115Z,1007.43
2022-08-05T11:44:07.378Z,1007.41
2022-08-05T11:45:05.313Z,1007.42
2022-08-05T11:46:27.153Z,1007.39
2022-08-05T11:47:11.777Z,1007.42
2022-08-05T11:48:04.356Z,1007.39
2022-08-05T11:49:03.415Z,1007.41
2022-08-05T11:50:03.479Z,1007.38
2022-08-05T11:51:03.601Z,1007.40
2022-08-05T11:52:11.314Z,1007.32
2022-08-05T11:53:04.703Z,1007.29
2022-08-05T11:54:04.793Z,1007.31
2022-08-05T11:55:07.409Z,1007.37
2022-08-05T11:56:03.867Z,1007.38
2022-08-05T11:57:08.338Z,1007.35
2022-08-05T11:58:10.116Z,1007.36
2022-08-05T11:59:05.007Z,1007.34
2022-08-05T12:00:05.017Z,1007.35
2022-08-05T12:01:04.587Z,1007.37
2022-08-05T12:02:04.118Z,1007.34
2022-08-05T12:03:04.277Z,1007.33
2022-08-05T12:04:04.287Z,1007.31
2022-08-05T12:05:06.793Z,1007.29
2022-08-05T12:06:06.686Z,1007.20
2022-08-05T12:07:05.346Z,1007.20
2022-08-05T12:08:09.917Z,1007.27